Time;durP1;ratioP1;P1;durP2;ratioP2;P2;SDS_P1;SDS_P2;PMS_P1;PMS_P2;Temp;Humidity;BMP_temperature;BMP_pressure;BME280_temperature;BME280_humidity;BME280_pressure;Samples;Min_cycle;Max_cycle;Signal;HPM_P1;HPM_P2
2021/12/15 06:00:49;;;;;;;5.27;4.87;;;9.30;97.20;;;;;;1721122;28;20223;-78
2021/12/15 06:01:41;;;;;;;4.50;4.10;;;9.30;97.20;;;;;;1725421;28;20288;-77
2021/12/15 06:02:32;;;;;;;5.00;4.60;;;9.30;97.20;;;;;;1728782;28;20574;-77
2021/12/15 06:03:23;;;;;;;5.45;4.95;;;9.30;97.20;;;;;;1728645;28;20277;-78
2021/12/15 06:04:15;;;;;;;6.03;5.40;;;9.30;97.20;;;;;;1728511;28;20216;-78
2021/12/15 06:05:07;;;;;;;6.40;5.78;;;9.30;97.20;;;;;;1728615;28;20200;-77
2021/12/15 06:05:59;;;;;;;6.05;5.55;;;9.30;97.20;;;;;;1728635;28;20200;-78
2021/12/15 06:06:50;;;;;;;6.13;5.55;;;9.30;97.20;;;;;;1728807;28;20284;-78
2021/12/15 06:07:43;;;;;;;7.20;6.50;;;9.30;97.20;;;;;;1728775;28;20839;-78
2021/12/15 06:08:34;;;;;;;9.20;7.97;;;9.30;97.20;;;;;;1728650;28;20224;-78
2021/12/15 06:09:26;;;;;;;9.60;8.70;;;9.30;97.20;;;;;;1728216;28;20228;-77
2021/12/15 06:10:21;;;;;;;8.35;7.60;;;9.30;97.20;;;;;;1728511;28;20570;-77
2021/12/15 06:11:12;;;;;;;8.68;7.93;;;9.30;97.20;;;;;;1728683;28;20254;-77
2021/12/15 06:12:05;;;;;;;9.98;8.43;;;9.30;97.20;;;;;;1728653;28;20288;-77
2021/12/15 06:12:57;;;;;;;9.32;7.43;;;9.30;97.20;;;;;;1728474;28;20204;-77
2021/12/15 06:13:50;;;;;;;10.00;9.00;;;9.40;97.20;;;;;;1725277;28;20247;-78
2021/12/15 06:14:43;;;;;;;9.95;8.80;;;9.30;97.20;;;;;;1725155;28;20623;-77
2021/12/15 06:15:34;;;;;;;9.90;8.98;;;9.40;97.20;;;;;;1728685;28;20555;-78
2021/12/15 06:16:27;;;;;;;9.63;8.82;;;9.40;97.20;;;;;;1722074;28;20193;-77
2021/12/15 06:17:24;;;;;;;9.68;8.68;;;9.40;97.20;;;;;;1721896;28;20205;-78
2021/12/15 06:18:18;;;;;;;9.30;8.45;;;9.40;97.20;;;;;;1721948;28;20201;-77
2021/12/15 06:19:09;;;;;;;9.07;8.27;;;9.40;97.20;;;;;;1721681;28;20217;-78
2021/12/15 06:20:01;;;;;;;9.13;8.23;;;9.40;97.20;;;;;;1724352;28;20292;-78
2021/12/15 06:20:54;;;;;;;8.20;7.50;;;9.40;97.20;;;;;;1728572;28;20228;-78
2021/12/15 06:21:46;;;;;;;7.78;7.07;;;9.40;97.20;;;;;;1728633;28;20215;-78
2021/12/15 06:22:39;;;;;;;6.80;6.20;;;9.40;97.20;;;;;;1728619;28;20552;-78
2021/12/15 06:23:31;;;;;;;7.22;6.53;;;9.40;97.20;;;;;;1728715;28;20227;-78
2021/12/15 06:24:22;;;;;;;7.72;6.93;;;9.30;97.20;;;;;;1728767;28;20212;-78
2021/12/15 06:25:15;;;;;;;6.50;5.90;;;9.30;97.20;;;;;;1726603;28;20208;-77
2021/12/15 06:26:08;;;;;;;7.88;7.07;;;9.30;97.20;;;;;;1724925;28;20201;-78
2021/12/15 06:27:05;;;;;;;8.07;7.28;;;9.30;97.20;;;;;;1721795;28;20290;-77
2021/12/15 06:27:57;;;;;;;6.70;6.10;;;9.30;97.20;;;;;;1721353;28;20228;-78
2021/12/15 06:28:48;;;;;;;7.90;7.10;;;9.30;97.20;;;;;;1721522;28;20260;-78
2021/12/15 06:29:40;;;;;;;7.72;7.03;;;9.30;97.20;;;;;;1721824;28;20233;-77
2021/12/15 06:30:32;;;;;;;7.20;6.60;;;9.30;97.20;;;;;;1725201;28;20236;-78
2021/12/15 06:31:24;;;;;;;8.18;7.47;;;9.30;97.20;;;;;;1728271;28;20193;-78
2021/12/15 06:32:17;;;;;;;6.88;6.28;;;9.30;97.20;;;;;;1727371;28;20208;-78
2021/12/15 06:33:08;;;;;;;6.35;5.75;;;9.30;97.20;;;;;;1724645;28;20205;-77
2021/12/15 06:33:59;;;;;;;6.53;6.00;;;9.30;97.20;;;;;;1723745;28;20213;-78
2021/12/15 06:34:52;;;;;;;8.60;5.85;;;9.30;97.20;;;;;;1723220;28;20272;-78
2021/12/15 06:35:52;;;;;;;7.55;6.85;;;9.30;97.20;;;;;;1727962;28;20212;-78
2021/12/15 06:36:44;;;;;;;6.40;5.80;;;9.30;97.20;;;;;;1722387;28;20653;-78
2021/12/15 06:37:35;;;;;;;7.03;6.38;;;9.30;97.20;;;;;;1728546;28;20215;-78
2021/12/15 06:38:29;;;;;;;6.63;6.03;;;9.30;97.20;;;;;;1727865;28;20197;-78
2021/12/15 06:39:20;;;;;;;6.38;5.75;;;9.30;97.20;;;;;;1723358;28;20197;-77
2021/12/15 06:40:13;;;;;;;6.87;6.27;;;9.30;97.20;;;;;;1727573;28;20200;-78
2021/12/15 06:41:05;;;;;;;6.75;6.15;;;9.30;97.20;;;;;;1728282;28;20205;-77
2021/12/15 06:41:58;;;;;;;7.75;7.05;;;9.30;97.20;;;;;;1728293;28;20204;-77
2021/12/15 06:42:49;;;;;;;8.23;7.43;;;9.30;97.20;;;;;;1727958;28;20200;-77
2021/12/15 06:43:44;;;;;;;8.63;7.83;;;9.30;97.20;;;;;;1728359;28;20235;-78
2021/12/15 06:44:35;;;;;;;8.55;7.75;;;9.30;97.20;;;;;;1728412;28;20455;-78
2021/12/15 06:45:34;;;;;;;7.47;6.77;;;9.30;97.20;;;;;;1728439;28;20201;-78
2021/12/15 06:58:12;;;;;;;10.70;9.70;;;9.10;97.20;;;;;;1721634;28;20200;-77
2021/12/15 06:59:03;;;;;;;13.60;10.23;;;9.10;97.20;;;;;;1721193;28;20201;-78
2021/12/15 06:59:55;;;;;;;11.07;10.13;;;9.10;97.20;;;;;;1721564;28;20248;-78
2021/12/15 07:00:48;;;;;;;11.32;10.23;;;9.10;97.20;;;;;;1721216;28;20480;-78
2021/12/15 07:01:40;;;;;;;12.13;10.93;;;9.10;97.20;;;;;;1721572;28;20193;-79
2021/12/15 07:02:31;;;;;;;12.82;11.48;;;9.20;97.20;;;;;;1721624;28;20694;-78
2021/12/15 07:03:25;;;;;;;13.10;11.90;;;9.10;97.20;;;;;;1721376;28;20943;-78
2021/12/15 07:04:17;;;;;;;11.77;10.77;;;9.10;97.20;;;;;;1721397;28;20205;-77
2021/12/15 07:05:11;;;;;;;13.13;11.95;;;9.10;97.20;;;;;;1721332;28;20197;-78
2021/12/15 07:06:03;;;;;;;12.90;11.63;;;9.10;97.20;;;;;;1721588;28;20209;-78
2021/12/15 07:06:55;;;;;;;11.82;10.73;;;9.20;97.20;;;;;;1721725;28;20261;-77
2021/12/15 07:07:48;;;;;;;9.88;8.93;;;9.20;97.20;;;;;;1721232;28;20209;-78
2021/12/15 07:08:40;;;;;;;12.02;10.93;;;9.20;97.20;;;;;;1722167;28;20255;-78
2021/12/15 07:09:33;;;;;;;10.65;9.65;;;9.20;97.20;;;;;;1721613;28;20212;-77
2021/12/15 07:10:27;;;;;;;12.13;11.02;;;9.20;97.20;;;;;;1721085;28;20296;-78
2021/12/15 07:11:19;;;;;;;10.98;9.98;;;9.20;97.20;;;;;;1721168;28;20210;-78
2021/12/15 07:12:10;;;;;;;11.52;10.30;;;9.20;97.20;;;;;;1721466;28;20212;-78
2021/12/15 07:13:02;;;;;;;10.60;9.60;;;9.20;97.20;;;;;;1726347;28;20703;-78
2021/12/15 07:13:54;;;;;;;11.50;10.43;;;9.20;97.20;;;;;;1728265;28;20462;-77
2021/12/15 07:14:44;;;;;;;9.93;9.05;;;9.20;97.20;;;;;;1728091;28;20200;-78
2021/12/15 07:15:37;;;;;;;9.67;8.57;;;9.20;97.20;;;;;;1728381;28;20232;-78
2021/12/15 07:16:32;;;;;;;9.20;8.40;;;9.20;97.20;;;;;;1728143;28;20219;-77
2021/12/15 07:17:25;;;;;;;8.88;8.13;;;9.20;97.20;;;;;;1728300;28;20215;-78
2021/12/15 07:18:26;;;;;;;9.40;8.57;;;9.20;97.20;;;;;;1728280;28;20200;-79
2021/12/15 07:19:30;;;;;;;9.73;8.80;;;9.20;97.20;;;;;;1728428;28;20197;-78
2021/12/15 07:20:36;;;;;;;9.85;9.05;;;9.20;97.20;;;;;;1728767;28;20204;-79
2021/12/15 07:21:34;;;;;;;9.52;8.73;;;9.20;97.20;;;;;;1728505;28;20331;-77
2021/12/15 07:22:32;;;;;;;10.10;9.10;;;9.20;97.20;;;;;;1723319;28;20201;-77
2021/12/15 07:23:24;;;;;;;10.50;9.55;;;9.20;97.20;;;;;;1721376;28;20205;-77
2021/12/15 07:24:14;;;;;;;9.43;8.63;;;9.20;97.20;;;;;;1721461;28;20216;-77
2021/12/15 07:25:08;;;;;;;10.17;9.27;;;9.20;97.20;;;;;;1721493;28;20193;-80
2021/12/15 07:25:59;;;;;;;10.52;9.57;;;9.20;97.20;;;;;;1721717;28;20224;-79
2021/12/15 07:26:51;;;;;;;10.77;9.77;;;9.20;97.20;;;;;;1721752;28;20280;-78
2021/12/15 07:27:42;;;;;;;11.32;10.30;;;9.20;97.20;;;;;;1721638;28;20456;-77
2021/12/15 07:28:34;;;;;;;11.13;10.18;;;9.30;97.20;;;;;;1721440;28;20264;-76
2021/12/15 07:29:25;;;;;;;14.45;10.52;;;9.30;97.20;;;;;;1721112;28;20208;-78
2021/12/15 07:30:17;;;;;;;11.68;10.57;;;9.30;97.20;;;;;;1721619;28;20200;-79
2021/12/15 07:31:10;;;;;;;12.20;11.10;;;9.30;97.20;;;;;;1721915;28;20575;-79
2021/12/15 07:32:02;;;;;;;11.80;10.80;;;9.30;97.20;;;;;;1721689;28;20209;-77
2021/12/15 07:32:55;;;;;;;12.50;11.35;;;9.30;97.20;;;;;;1722254;28;20208;-78
2021/12/15 07:33:47;;;;;;;11.43;10.32;;;9.30;97.20;;;;;;1722057;28;20205;-77
2021/12/15 07:34:39;;;;;;;12.50;11.45;;;9.30;97.20;;;;;;1721707;28;20216;-77
2021/12/15 07:35:32;;;;;;;12.65;11.55;;;9.20;97.20;;;;;;1721147;28;20205;-78
2021/12/15 07:36:23;;;;;;;12.48;11.27;;;9.20;97.20;;;;;;1721669;28;20205;-78
2021/12/15 07:37:15;;;;;;;12.60;11.40;;;9.20;97.20;;;;;;1721689;28;20300;-77
2021/12/15 07:38:07;;;;;;;13.48;12.27;;;9.20;97.20;;;;;;1723230;28;20463;-78
2021/12/15 07:38:59;;;;;;;13.25;12.05;;;9.20;97.20;;;;;;1728788;28;20203;-78
2021/12/15 07:39:57;;;;;;;13.05;11.85;;;9.20;97.20;;;;;;1728907;28;20292;-78
2021/12/15 07:40:49;;;;;;;13.68;12.30;;;9.20;97.20;;;;;;1730520;28;20260;-77
2021/12/15 07:41:48;;;;;;;13.63;12.23;;;9.20;97.20;;;;;;1731687;28;20204;-76
2021/12/15 07:42:53;;;;;;;13.63;12.23;;;9.20;97.20;;;;;;1728302;28;20266;-78
2021/12/15 07:43:45;;;;;;;13.10;11.88;;;9.30;97.20;;;;;;1728778;28;20278;-77
2021/12/15 07:44:37;;;;;;;13.55;12.25;;;9.30;97.20;;;;;;1728891;28;20574;-77
2021/12/15 07:45:29;;;;;;;14.32;12.85;;;9.30;97.20;;;;;;1725845;28;20244;-78
2021/12/15 07:46:21;;;;;;;13.50;12.10;;;9.30;97.20;;;;;;1724887;28;20209;-77
2021/12/15 07:47:12;;;;;;;13.75;12.45;;;9.20;97.20;;;;;;1726171;28;20224;-77
2021/12/15 07:48:05;;;;;;;14.53;13.13;;;9.20;97.20;;;;;;1724848;28;20259;-77
2021/12/15 07:48:57;;;;;;;14.02;12.73;;;9.20;97.20;;;;;;1723551;28;20215;-79
2021/12/15 07:49:49;;;;;;;13.38;12.02;;;9.30;97.20;;;;;;1724674;28;20205;-77
2021/12/15 07:50:43;;;;;;;13.98;12.65;;;9.20;97.20;;;;;;1723272;28;20225;-76
2021/12/15 07:51:34;;;;;;;14.23;12.82;;;9.30;97.20;;;;;;1729853;28;20204;-77
2021/12/15 07:52:25;;;;;;;14.00;12.60;;;9.30;97.20;;;;;;1729468;28;20667;-77
2021/12/15 07:53:18;;;;;;;14.63;13.07;;;9.30;97.20;;;;;;1725479;28;20456;-77
2021/12/15 07:54:10;;;;;;;13.82;11.68;;;9.30;97.20;;;;;;1724864;28;20207;-77
2021/12/15 07:55:01;;;;;;;14.55;13.05;;;9.30;97.20;;;;;;1723369;28;20201;-78
2021/12/15 07:55:54;;;;;;;13.67;12.37;;;9.30;97.20;;;;;;1725748;28;20235;-77
2021/12/15 07:56:45;;;;;;;12.93;11.63;;;9.20;97.20;;;;;;1730660;28;20211;-78
2021/12/15 07:57:38;;;;;;;14.53;12.67;;;9.20;97.20;;;;;;1727737;28;20231;-78
2021/12/15 07:58:29;;;;;;;13.00;11.70;;;9.20;97.20;;;;;;1728218;28;20524;-78
2021/12/15 07:59:21;;;;;;;12.98;11.60;;;9.20;97.20;;;;;;1727796;28;20196;-79
2021/12/15 08:00:14;;;;;;;13.52;11.88;;;9.20;97.20;;;;;;1727832;28;20213;-77
2021/12/15 08:01:07;;;;;;;13.15;11.90;;;9.20;97.20;;;;;;1727835;28;20205;-77
2021/12/15 08:01:58;;;;;;;12.27;11.07;;;9.20;97.20;;;;;;1727975;28;20231;-79
2021/12/15 08:02:50;;;;;;;12.17;10.97;;;9.20;97.20;;;;;;1728459;28;20202;-79
2021/12/15 08:03:43;;;;;;;11.63;10.52;;;9.20;97.20;;;;;;1728228;28;20208;-79
2021/12/15 08:04:34;;;;;;;11.55;10.45;;;9.20;97.20;;;;;;1728369;28;20208;-80
2021/12/15 08:05:28;;;;;;;12.67;11.43;;;9.20;97.20;;;;;;1728274;28;20200;-80
2021/12/15 08:06:19;;;;;;;11.88;10.75;;;9.20;97.20;;;;;;1728496;28;20463;-80
2021/12/15 08:07:11;;;;;;;10.50;9.50;;;9.20;97.20;;;;;;1728410;28;20279;-81
2021/12/15 08:08:02;;;;;;;11.93;10.38;;;9.20;97.20;;;;;;1728574;28;20462;-81
2021/12/15 08:08:54;;;;;;;11.25;10.02;;;9.20;97.20;;;;;;1728291;28;20210;-81
2021/12/15 08:09:45;;;;;;;11.07;10.02;;;9.20;97.20;;;;;;1727313;28;20573;-79
2021/12/15 08:10:38;;;;;;;10.32;9.30;;;9.20;97.20;;;;;;1725287;28;20224;-81
2021/12/15 08:11:29;;;;;;;10.57;8.25;;;9.20;97.20;;;;;;1728268;28;20258;-82
2021/12/15 08:12:21;;;;;;;10.23;8.70;;;9.20;97.20;;;;;;1721937;28;20254;-81
2021/12/15 08:13:15;;;;;;;8.90;8.00;;;9.20;97.20;;;;;;1721573;28;20714;-80
2021/12/15 08:14:06;;;;;;;9.23;7.43;;;9.20;97.20;;;;;;1721636;28;20197;-81
2021/12/15 08:14:58;;;;;;;9.30;8.40;;;9.20;97.20;;;;;;1721917;28;20201;-81
2021/12/15 08:15:50;;;;;;;8.57;7.78;;;9.20;97.20;;;;;;1721750;28;20212;-80
2021/12/15 08:16:41;;;;;;;8.95;8.07;;;9.20;97.20;;;;;;1721840;28;20209;-80
2021/12/15 08:17:32;;;;;;;9.10;8.23;;;9.20;97.20;;;;;;1721950;28;20252;-81
2021/12/15 08:18:25;;;;;;;9.52;8.60;;;9.10;97.20;;;;;;1721798;28;20456;-80
2021/12/15 08:19:18;;;;;;;9.18;8.27;;;9.10;97.20;;;;;;1721251;28;20208;-80
2021/12/15 08:20:13;;;;;;;9.13;8.32;;;9.20;97.20;;;;;;1721764;28;20681;-81
2021/12/15 08:21:06;;;;;;;8.95;8.10;;;9.20;97.20;;;;;;1721685;28;20205;-81
2021/12/15 08:21:57;;;;;;;9.85;8.93;;;9.20;97.20;;;;;;1721595;28;20209;-80
2021/12/15 08:22:49;;;;;;;8.50;7.60;;;9.20;97.20;;;;;;1721926;28;20232;-81
2021/12/15 08:23:41;;;;;;;8.77;7.78;;;9.20;97.20;;;;;;1724937;28;20458;-81
2021/12/15 08:24:32;;;;;;;8.73;7.93;;;9.20;97.20;;;;;;1728430;28;20430;-80
2021/12/15 08:25:24;;;;;;;9.33;7.77;;;9.20;97.20;;;;;;1728576;28;20704;-81
2021/12/15 08:26:15;;;;;;;9.20;8.30;;;9.20;97.20;;;;;;1728773;28;20943;-81
2021/12/15 08:27:07;;;;;;;8.30;7.50;;;9.20;97.20;;;;;;1728460;28;20715;-80
2021/12/15 08:27:59;;;;;;;9.35;8.00;;;9.20;97.20;;;;;;1728500;28;20455;-81
2021/12/15 08:28:51;;;;;;;8.30;7.60;;;9.20;97.20;;;;;;1728404;28;20212;-81
2021/12/15 08:29:43;;;;;;;7.63;6.88;;;9.20;97.20;;;;;;1728065;28;20829;-80
2021/12/15 08:30:35;;;;;;;8.07;7.35;;;9.10;97.20;;;;;;1728620;28;20726;-81
2021/12/15 08:31:27;;;;;;;8.48;7.68;;;9.10;97.20;;;;;;1728546;28;20247;-80
2021/12/15 08:32:18;;;;;;;8.63;7.82;;;9.10;97.20;;;;;;1728427;28;20233;-80
2021/12/15 08:33:16;;;;;;;10.23;7.90;;;9.10;97.20;;;;;;1728136;28;20201;-81
2021/12/15 08:34:08;;;;;;;8.23;7.43;;;9.10;97.20;;;;;;1728272;28;20455;-80
2021/12/15 08:35:00;;;;;;;8.52;7.55;;;9.10;97.20;;;;;;1728394;28;20224;-81
2021/12/15 08:35:57;;;;;;;7.63;6.93;;;9.20;97.20;;;;;;1728500;28;20208;-81
2021/12/15 08:36:52;;;;;;;7.00;6.28;;;9.20;97.20;;;;;;1728526;28;20551;-81
2021/12/15 08:37:44;;;;;;;7.90;6.90;;;9.10;97.20;;;;;;1728423;28;20692;-80
2021/12/15 08:38:37;;;;;;;7.20;6.50;;;9.10;97.20;;;;;;1728780;28;20227;-80
2021/12/15 08:39:29;;;;;;;7.63;6.90;;;9.10;97.20;;;;;;1727706;28;20200;-80
2021/12/15 08:40:22;;;;;;;8.20;7.40;;;9.00;97.20;;;;;;1721494;28;20212;-80
2021/12/15 08:41:21;;;;;;;6.90;6.30;;;9.00;97.20;;;;;;1721622;28;20232;-81
2021/12/15 08:42:13;;;;;;;7.57;6.88;;;9.00;97.20;;;;;;1721623;28;20201;-80
2021/12/15 08:43:07;;;;;;;7.05;6.45;;;9.00;97.20;;;;;;1721913;28;20255;-81
2021/12/15 08:43:59;;;;;;;7.72;7.03;;;8.90;97.20;;;;;;1721777;28;20205;-80
2021/12/15 08:44:50;;;;;;;7.75;6.95;;;8.90;97.20;;;;;;1721985;28;20209;-80
2021/12/15 08:45:46;;;;;;;7.75;6.97;;;8.90;97.20;;;;;;1721484;28;20220;-81
2021/12/15 08:46:42;;;;;;;8.30;7.50;;;8.90;97.20;;;;;;1721628;28;20225;-81
2021/12/15 08:47:34;;;;;;;7.70;7.00;;;8.90;97.20;;;;;;1721874;28;20209;-81
2021/12/15 08:48:26;;;;;;;7.65;6.85;;;8.90;97.20;;;;;;1721648;28;20208;-80
2021/12/15 08:49:21;;;;;;;8.13;7.32;;;8.90;97.20;;;;;;1721323;28;20212;-81
2021/12/15 08:50:18;;;;;;;8.38;7.57;;;8.90;97.20;;;;;;1721314;28;20215;-81
2021/12/15 08:51:12;;;;;;;7.70;6.88;;;8.90;97.20;;;;;;1721695;28;20209;-81
2021/12/15 08:52:07;;;;;;;8.35;7.55;;;8.90;97.20;;;;;;1721436;28;20197;-81
2021/12/15 08:52:58;;;;;;;8.10;7.40;;;8.90;97.20;;;;;;1721598;28;20564;-80
2021/12/15 08:53:50;;;;;;;8.85;8.07;;;8.90;97.20;;;;;;1721831;28;20193;-80
2021/12/15 08:54:41;;;;;;;8.77;7.97;;;8.90;97.20;;;;;;1721592;28;20205;-81
2021/12/15 08:55:33;;;;;;;8.43;7.67;;;8.90;97.20;;;;;;1722782;28;20201;-81
2021/12/15 08:56:24;;;;;;;8.50;7.70;;;8.90;97.20;;;;;;1721687;28;20460;-81
2021/12/15 08:57:16;;;;;;;9.40;8.48;;;8.90;97.20;;;;;;1721760;28;20208;-80
2021/12/15 08:58:10;;;;;;;8.88;8.10;;;8.90;97.20;;;;;;1721514;28;20205;-81
2021/12/15 08:59:04;;;;;;;8.52;7.70;;;9.00;97.20;;;;;;1721441;28;20264;-81
2021/12/15 08:59:55;;;;;;;8.13;7.43;;;9.00;97.20;;;;;;1721538;28;20201;-80
2021/12/15 09:00:50;;;;;;;7.87;7.17;;;8.90;97.20;;;;;;1721608;28;20311;-81
2021/12/15 09:01:44;;;;;;;8.35;7.65;;;8.90;97.20;;;;;;1721665;28;20476;-81
2021/12/15 09:02:35;;;;;;;7.43;6.80;;;8.90;97.20;;;;;;1721589;28;20584;-81
2021/12/15 09:03:28;;;;;;;8.93;7.60;;;8.90;97.20;;;;;;1721746;28;20589;-81
2021/12/15 09:04:19;;;;;;;8.23;7.50;;;8.90;97.20;;;;;;1721442;28;20821;-80
2021/12/15 09:05:11;;;;;;;8.20;7.40;;;8.90;97.20;;;;;;1721657;28;20259;-81
2021/12/15 09:06:03;;;;;;;8.05;7.35;;;8.90;97.20;;;;;;1721592;28;20204;-81
2021/12/15 09:06:55;;;;;;;8.75;7.25;;;9.00;97.20;;;;;;1721569;28;20259;-81
2021/12/15 09:07:48;;;;;;;9.35;8.55;;;8.90;97.20;;;;;;1721825;28;20205;-81
2021/12/15 09:08:41;;;;;;;7.55;6.95;;;9.00;97.20;;;;;;1722068;28;20209;-80
2021/12/15 09:09:33;;;;;;;8.32;7.53;;;8.90;97.20;;;;;;1722529;28;20201;-80
2021/12/15 09:10:27;;;;;;;8.00;7.20;;;9.00;97.20;;;;;;1722870;28;20255;-81
2021/12/15 09:11:20;;;;;;;7.75;6.97;;;9.00;97.20;;;;;;1722941;28;20579;-81
2021/12/15 09:12:12;;;;;;;7.78;7.07;;;9.00;97.20;;;;;;1724202;28;20303;-81
2021/12/15 09:13:04;;;;;;;8.05;7.35;;;9.00;97.20;;;;;;1723191;28;20201;-81
2021/12/15 09:13:58;;;;;;;8.00;7.30;;;9.00;97.20;;;;;;1722776;28;20315;-80
2021/12/15 09:14:49;;;;;;;7.95;7.10;;;9.00;97.20;;;;;;1722934;28;20652;-81
2021/12/15 09:15:43;;;;;;;7.78;7.10;;;9.00;97.20;;;;;;1723146;28;20482;-80
2021/12/15 09:16:35;;;;;;;7.72;7.05;;;9.00;97.20;;;;;;1722902;28;20205;-81
2021/12/15 09:17:27;;;;;;;7.70;7.00;;;9.00;97.20;;;;;;1722942;28;20299;-81
2021/12/15 09:18:19;;;;;;;9.02;7.78;;;9.00;97.20;;;;;;1722887;28;20209;-81
2021/12/15 09:19:10;;;;;;;8.40;7.60;;;9.00;97.20;;;;;;1723188;28;20684;-81
2021/12/15 09:20:04;;;;;;;7.28;6.68;;;9.00;97.20;;;;;;1722869;28;20197;-80
2021/12/15 09:20:56;;;;;;;8.27;7.43;;;9.00;97.20;;;;;;1722657;28;20229;-80
2021/12/15 09:21:50;;;;;;;8.55;7.65;;;9.00;97.20;;;;;;1722874;28;20225;-81
2021/12/15 09:22:42;;;;;;;8.98;7.32;;;9.00;97.20;;;;;;1722978;28;20212;-80
2021/12/15 09:23:34;;;;;;;7.72;7.03;;;9.00;97.20;;;;;;1723059;28;20209;-80
2021/12/15 09:24:27;;;;;;;8.90;7.72;;;9.00;97.20;;;;;;1723198;28;20676;-81
2021/12/15 09:25:18;;;;;;;8.57;7.68;;;9.00;97.20;;;;;;1723134;28;20205;-80
2021/12/15 09:26:11;;;;;;;8.50;7.60;;;9.00;97.20;;;;;;1723583;28;20200;-81
2021/12/15 09:27:03;;;;;;;7.25;6.65;;;9.00;97.20;;;;;;1723413;28;20205;-81
2021/12/15 09:27:58;;;;;;;8.50;7.35;;;9.00;97.20;;;;;;1723796;28;20205;-80
2021/12/15 09:28:50;;;;;;;9.77;7.07;;;9.00;97.20;;;;;;1722561;28;20203;-81
2021/12/15 09:29:41;;;;;;;7.43;6.72;;;9.00;97.20;;;;;;1722972;28;20209;-81
2021/12/15 09:30:35;;;;;;;8.23;7.43;;;9.00;97.20;;;;;;1722990;28;20315;-80
2021/12/15 09:31:26;;;;;;;8.85;7.40;;;9.00;97.20;;;;;;1722799;28;20451;-81
2021/12/15 09:32:19;;;;;;;7.43;6.83;;;9.00;97.20;;;;;;1726691;28;20279;-81
2021/12/15 09:33:10;;;;;;;7.80;7.10;;;9.10;97.20;;;;;;1729555;28;20455;-80
2021/12/15 09:34:04;;;;;;;8.45;7.55;;;9.10;97.20;;;;;;1729665;28;20227;-81
2021/12/15 09:34:55;;;;;;;7.60;6.90;;;9.10;97.20;;;;;;1729406;28;20204;-80
2021/12/15 09:35:48;;;;;;;8.23;7.47;;;9.10;97.20;;;;;;1729516;28;20667;-81
2021/12/15 09:36:39;;;;;;;7.40;6.70;;;9.10;97.20;;;;;;1729359;28;20458;-81
2021/12/15 09:37:31;;;;;;;6.47;5.87;;;9.10;97.20;;;;;;1729788;28;20219;-80
2021/12/15 09:38:22;;;;;;;7.13;6.43;;;9.10;97.20;;;;;;1729474;28;20443;-80
2021/12/15 09:39:17;;;;;;;7.00;6.40;;;9.00;97.20;;;;;;1729346;28;20211;-81
2021/12/15 09:40:11;;;;;;;7.05;6.35;;;9.00;97.20;;;;;;1729581;28;20204;-81
2021/12/15 09:41:05;;;;;;;6.90;6.30;;;9.00;97.20;;;;;;1729527;28;20283;-79
2021/12/15 09:41:56;;;;;;;7.10;6.40;;;9.00;97.20;;;;;;1729613;28;20208;-80
2021/12/15 09:42:48;;;;;;;7.30;6.50;;;9.00;97.20;;;;;;1729326;28;20627;-80
2021/12/15 09:43:41;;;;;;;7.30;6.60;;;9.00;97.20;;;;;;1726672;28;20460;-81
2021/12/15 09:44:33;;;;;;;6.95;6.07;;;9.00;97.20;;;;;;1722573;28;20204;-80
2021/12/15 09:45:36;;;;;;;7.95;6.40;;;9.00;97.20;;;;;;1722696;28;20205;-78
2021/12/15 09:46:38;;;;;;;7.97;7.18;;;9.00;97.20;;;;;;1722674;28;20548;-82
2021/12/15 09:47:46;;;;;;;6.93;6.32;;;9.00;97.20;;;;;;1722869;28;20212;-81
2021/12/15 09:57:15;;;;;;;7.45;6.63;;;8.90;97.20;;;;;;1723256;28;20208;-81
2021/12/15 10:02:58;;;;;;;6.07;5.45;;;8.90;97.20;;;;;;1723079;28;20204;-81
2021/12/15 10:04:08;;;;;;;6.13;5.50;;;8.90;97.20;;;;;;1723193;28;20216;-81
2021/12/15 10:05:12;;;;;;;6.15;5.55;;;8.80;97.20;;;;;;1723023;28;20664;-81
2021/12/15 10:06:20;;;;;;;6.97;6.28;;;8.80;97.20;;;;;;1722954;28;20624;-81
2021/12/15 10:07:22;;;;;;;7.88;6.35;;;8.80;97.20;;;;;;1722874;28;20288;-81
2021/12/15 10:10:45;;;;;;;5.97;5.47;;;8.80;97.20;;;;;;1722867;28;20264;-81
2021/12/15 10:12:07;;;;;;;6.40;5.80;;;8.70;97.20;;;;;;1723050;28;20201;-81
2021/12/15 10:17:55;;;;;;;7.03;6.43;;;8.70;97.20;;;;;;1729907;28;20227;-81
2021/12/15 10:18:49;;;;;;;7.03;6.32;;;8.80;97.20;;;;;;1729706;28;20684;-81
2021/12/15 10:19:43;;;;;;;6.65;6.05;;;8.80;97.20;;;;;;1729108;28;20262;-81
2021/12/15 10:20:37;;;;;;;6.75;6.10;;;8.80;97.20;;;;;;1730154;28;20700;-81
2021/12/15 10:21:33;;;;;;;7.75;5.60;;;8.80;97.20;;;;;;1729523;28;20630;-81
2021/12/15 10:22:32;;;;;;;6.13;5.60;;;8.80;97.20;;;;;;1729505;28;20290;-81
2021/12/15 10:23:30;;;;;;;7.32;6.20;;;8.80;97.20;;;;;;1729740;28;20209;-81
2021/12/15 10:24:27;;;;;;;6.78;5.95;;;8.80;97.20;;;;;;1729182;28;20236;-81
2021/12/15 10:25:24;;;;;;;6.68;5.75;;;8.80;97.20;;;;;;1729267;28;20200;-81
2021/12/15 10:26:15;;;;;;;7.30;6.60;;;8.80;97.20;;;;;;1729599;28;20236;-81
2021/12/15 10:27:07;;;;;;;6.80;6.20;;;8.80;97.20;;;;;;1729630;28;20205;-81
2021/12/15 10:28:03;;;;;;;11.07;6.70;;;8.80;97.20;;;;;;1729821;28;20215;-81
2021/12/15 10:28:55;;;;;;;6.40;5.80;;;8.80;97.20;;;;;;1724133;28;20209;-81
2021/12/15 10:29:57;;;;;;;6.82;6.15;;;8.80;97.20;;;;;;1723086;28;20201;-81
2021/12/15 10:30:52;;;;;;;6.70;6.10;;;8.80;97.20;;;;;;1722769;28;20244;-81
2021/12/15 10:31:56;;;;;;;7.85;7.15;;;8.80;97.20;;;;;;1722804;28;20201;-81
2021/12/15 10:32:53;;;;;;;8.52;7.10;;;8.80;97.20;;;;;;1722715;28;20244;-81
2021/12/15 10:33:46;;;;;;;7.97;7.18;;;8.80;97.20;;;;;;1723267;28;20202;-81
2021/12/15 10:34:40;;;;;;;7.85;7.07;;;8.80;97.20;;;;;;1722857;28;20223;-81
2021/12/15 10:35:33;;;;;;;6.78;6.07;;;8.80;97.20;;;;;;1723018;28;20205;-81
2021/12/15 10:36:28;;;;;;;8.10;6.28;;;8.80;97.20;;;;;;1722914;28;20197;-81
2021/12/15 10:37:19;;;;;;;6.65;5.95;;;8.80;97.20;;;;;;1723038;28;20209;-81
2021/12/15 10:38:15;;;;;;;7.93;6.80;;;8.80;97.20;;;;;;1722907;28;20225;-81
2021/12/15 10:39:09;;;;;;;7.00;6.30;;;8.70;97.20;;;;;;1722694;28;20551;-81
2021/12/15 10:40:18;;;;;;;7.68;6.97;;;8.80;97.20;;;;;;1722705;28;20220;-81
2021/12/15 10:41:13;;;;;;;7.32;6.60;;;8.80;97.20;;;;;;1722809;28;20263;-81
2021/12/15 10:42:04;;;;;;;6.78;6.18;;;8.80;97.20;;;;;;1722878;28;20201;-81
2021/12/15 10:43:02;;;;;;;6.70;6.00;;;8.80;97.20;;;;;;1722860;28;20201;-81
2021/12/15 10:43:56;;;;;;;7.05;6.20;;;8.80;97.20;;;;;;1723004;28;20216;-81
2021/12/15 10:45:01;;;;;;;9.05;6.93;;;8.80;97.20;;;;;;1727267;28;20205;-81
2021/12/15 10:45:55;;;;;;;7.28;6.55;;;8.70;97.20;;;;;;1726231;28;20197;-81
2021/12/15 10:46:50;;;;;;;6.78;6.18;;;8.80;97.20;;;;;;1722785;28;20205;-81
2021/12/15 10:47:45;;;;;;;7.60;6.90;;;8.70;97.20;;;;;;1722796;28;20271;-81
2021/12/15 10:48:45;;;;;;;7.28;6.32;;;8.70;97.20;;;;;;1722952;28;20235;-81
2021/12/15 10:49:39;;;;;;;7.22;6.53;;;8.70;97.20;;;;;;1723083;28;20206;-81
2021/12/15 10:50:31;;;;;;;6.97;6.30;;;8.70;97.20;;;;;;1722403;28;20224;-81
2021/12/15 10:51:31;;;;;;;7.10;6.40;;;8.70;97.20;;;;;;1722895;28;20198;-81
2021/12/15 10:52:23;;;;;;;7.15;6.45;;;8.60;97.20;;;;;;1723519;28;20201;-81
2021/12/15 10:53:14;;;;;;;7.78;6.95;;;8.50;97.20;;;;;;1722858;28;20209;-81
2021/12/15 10:54:09;;;;;;;8.15;7.35;;;8.50;97.20;;;;;;1722801;28;20207;-81
2021/12/15 10:55:04;;;;;;;7.70;7.00;;;8.40;97.20;;;;;;1722804;28;20205;-81
2021/12/15 10:55:57;;;;;;;8.20;6.93;;;8.40;97.20;;;;;;1722677;28;20259;-81
2021/12/15 10:56:52;;;;;;;9.35;7.30;;;8.40;97.20;;;;;;1722907;28;20205;-81
2021/12/15 10:57:44;;;;;;;8.02;7.18;;;8.40;97.20;;;;;;1723049;28;20664;-81
2021/12/15 10:58:39;;;;;;;9.00;7.13;;;8.40;97.20;;;;;;1722405;28;20738;-81
2021/12/15 10:59:34;;;;;;;7.70;6.65;;;8.50;97.20;;;;;;1722332;28;20220;-82
2021/12/15 11:00:25;;;;;;;7.90;6.97;;;8.50;97.20;;;;;;1724970;28;20193;-81
2021/12/15 11:01:43;;;;;;;8.15;7.35;;;8.50;97.20;;;;;;1729468;28;20295;-81
2021/12/15 11:02:35;;;;;;;7.15;6.45;;;8.50;97.20;;;;;;1728994;28;20208;-81
2021/12/15 11:03:32;;;;;;;7.93;7.13;;;8.50;97.20;;;;;;1729638;28;20204;-81
2021/12/15 11:04:32;;;;;;;7.57;6.78;;;8.50;97.20;;;;;;1729623;28;20211;-81
2021/12/15 11:05:24;;;;;;;7.32;6.60;;;8.60;97.20;;;;;;1729400;28;20219;-81
2021/12/15 11:06:20;;;;;;;7.70;7.00;;;8.60;97.20;;;;;;1729497;28;20216;-81
2021/12/15 11:07:17;;;;;;;8.50;7.53;;;8.60;97.20;;;;;;1729200;28;20207;-81
2021/12/15 11:08:09;;;;;;;7.50;6.75;;;8.60;97.20;;;;;;1729345;28;20209;-81
2021/12/15 11:09:18;;;;;;;8.82;7.38;;;8.70;97.20;;;;;;1728762;28;20212;-81
2021/12/15 11:10:13;;;;;;;8.13;7.15;;;8.70;97.20;;;;;;1727576;28;20208;-81
2021/12/15 11:11:05;;;;;;;6.80;6.20;;;8.70;97.20;;;;;;1729144;28;20200;-81
2021/12/15 11:12:00;;;;;;;8.18;7.45;;;8.70;97.20;;;;;;1729655;28;20215;-81
2021/12/15 11:12:53;;;;;;;7.50;6.80;;;8.70;97.20;;;;;;1729377;28;20664;-81
2021/12/15 11:13:44;;;;;;;7.75;6.95;;;8.70;97.20;;;;;;1728944;28;20211;-81
2021/12/15 11:14:38;;;;;;;6.73;6.13;;;8.70;97.20;;;;;;1729315;28;20227;-81